Time;durP1;ratioP1;P1;durP2;ratioP2;P2;SDS_P1;SDS_P2;PMS_P1;PMS_P2;Temp;Humidity;BMP_temperature;BMP_pressure;BME280_temperature;BME280_humidity;BME280_pressure;Samples;Min_cycle;Max_cycle;Signal;HPM_P1;HPM_P2
2022/05/19 00:00:30;;;;;;;1.70;1.60;;;22.80;58.00;;;;;;5090571;28;20213;-66
2022/05/19 00:02:55;;;;;;;2.97;1.75;;;22.80;57.90;;;;;;5091019;28;20219;-65
2022/05/19 00:05:21;;;;;;;2.80;2.00;;;22.80;57.90;;;;;;5091499;28;20177;-66
2022/05/19 00:07:46;;;;;;;2.17;1.98;;;22.80;58.00;;;;;;5090179;28;20221;-66
2022/05/19 00:10:12;;;;;;;2.33;1.73;;;22.80;58.00;;;;;;5091139;28;20173;-66
2022/05/19 00:12:37;;;;;;;1.63;1.52;;;22.80;58.00;;;;;;5090799;28;20538;-67
2022/05/19 00:15:04;;;;;;;2.40;1.80;;;22.80;57.90;;;;;;5090484;28;20181;-67
2022/05/19 00:17:29;;;;;;;1.33;1.27;;;22.80;57.90;;;;;;5091431;28;20243;-68
2022/05/19 00:19:55;;;;;;;2.08;1.90;;;22.80;57.90;;;;;;5090762;28;20652;-67
2022/05/19 00:22:20;;;;;;;1.90;1.80;;;22.80;57.90;;;;;;5090298;28;20229;-67
2022/05/19 00:24:46;;;;;;;2.10;1.90;;;22.80;57.90;;;;;;5089591;28;20269;-67
2022/05/19 00:27:11;;;;;;;1.67;1.58;;;22.80;57.90;;;;;;5090937;28;20180;-66
2022/05/19 00:29:37;;;;;;;1.60;1.50;;;22.70;57.80;;;;;;5089994;28;20574;-67
2022/05/19 00:32:02;;;;;;;2.00;1.65;;;22.70;57.80;;;;;;5091114;28;20166;-66
2022/05/19 00:34:28;;;;;;;2.10;1.90;;;22.70;57.80;;;;;;5091115;28;20186;-65
2022/05/19 00:37:00;;;;;;;2.17;1.80;;;22.80;57.90;;;;;;5089790;28;20223;-66
2022/05/19 00:39:27;;;;;;;1.83;1.73;;;22.70;57.80;;;;;;5091062;28;20177;-66
2022/05/19 00:42:43;;;;;;;3.03;1.83;;;22.70;57.80;;;;;;5090452;28;20234;-66
2022/05/19 00:44:39;;;;;;;1.85;1.70;;;22.70;57.80;;;;;;5090368;28;20174;-67
2022/05/19 00:47:04;;;;;;;2.35;1.70;;;22.70;57.80;;;;;;5090935;28;20181;-66
2022/05/19 00:49:36;;;;;;;1.70;1.60;;;22.70;57.80;;;;;;5071945;28;20180;-67
2022/05/19 00:52:16;;;;;;;1.65;1.55;;;22.70;57.80;;;;;;5072920;28;20186;-68
2022/05/19 00:54:47;;;;;;;2.03;1.50;;;22.70;57.80;;;;;;5090687;28;20315;-67
2022/05/19 00:57:17;;;;;;;2.70;1.70;;;22.70;57.80;;;;;;5072023;28;20178;-67
2022/05/19 00:59:51;;;;;;;1.85;1.60;;;22.70;57.80;;;;;;5090356;28;20241;-66
2022/05/19 01:02:19;;;;;;;1.80;1.70;;;22.70;57.80;;;;;;5073365;28;20641;-66
2022/05/19 01:04:59;;;;;;;1.70;1.60;;;22.70;57.80;;;;;;5088734;28;20174;-66
2022/05/19 01:07:39;;;;;;;2.38;1.67;;;22.70;57.80;;;;;;5090334;28;20228;-66
2022/05/19 01:10:05;;;;;;;1.70;1.60;;;22.70;57.80;;;;;;5093415;28;20174;-67
2022/05/19 01:12:31;;;;;;;1.95;1.70;;;22.70;57.80;;;;;;5093618;28;20632;-67
2022/05/19 01:14:56;;;;;;;1.88;1.77;;;22.70;57.80;;;;;;5092495;28;20311;-67
2022/05/19 01:17:22;;;;;;;2.17;1.52;;;22.70;57.80;;;;;;5092022;28;20281;-68
2022/05/19 01:19:59;;;;;;;1.88;1.77;;;22.70;57.80;;;;;;5092328;28;20209;-68
2022/05/19 01:22:46;;;;;;;1.60;1.50;;;22.70;57.80;;;;;;5094090;28;20181;-67
2022/05/19 01:25:50;;;;;;;1.90;1.80;;;22.70;57.80;;;;;;5092066;28;20664;-68
2022/05/19 01:28:15;;;;;;;1.50;1.40;;;22.70;57.80;;;;;;5090439;28;20182;-67
2022/05/19 01:30:44;;;;;;;1.70;1.60;;;22.70;58.40;;;;;;5092655;28;20185;-67
2022/05/19 01:33:09;;;;;;;1.88;1.77;;;22.60;57.80;;;;;;5093041;28;20190;-67
2022/05/19 01:35:35;;;;;;;1.75;1.65;;;22.70;57.80;;;;;;5093601;28;20174;-67
2022/05/19 01:38:01;;;;;;;1.95;1.80;;;22.60;57.80;;;;;;5093599;28;20259;-67
2022/05/19 01:40:50;;;;;;;1.70;1.60;;;22.60;57.80;;;;;;5092975;28;20214;-67
2022/05/19 01:43:41;;;;;;;1.77;1.67;;;22.70;57.80;;;;;;5092600;28;20169;-67
2022/05/19 01:46:12;;;;;;;1.70;1.58;;;22.60;57.80;;;;;;5093215;28;20216;-68
2022/05/19 01:48:51;;;;;;;1.60;1.50;;;22.60;57.80;;;;;;5091933;28;20173;-67
2022/05/19 01:51:21;;;;;;;3.22;1.90;;;22.60;57.80;;;;;;5092446;28;20174;-68
2022/05/19 01:54:16;;;;;;;2.20;2.00;;;22.60;57.80;;;;;;5091225;28;20219;-68
2022/05/19 01:56:56;;;;;;;1.92;1.83;;;22.60;57.80;;;;;;5091967;28;20273;-68
2022/05/19 01:59:29;;;;;;;1.90;1.80;;;22.60;57.80;;;;;;5092269;28;20292;-68
2022/05/19 02:02:11;;;;;;;2.28;1.60;;;22.60;57.80;;;;;;5075980;28;20387;-67
2022/05/19 02:04:38;;;;;;;1.70;1.60;;;22.60;57.80;;;;;;5076182;28;20197;-67
2022/05/19 02:07:05;;;;;;;1.80;1.70;;;22.60;57.80;;;;;;5090936;28;20255;-67
2022/05/19 02:09:34;;;;;;;1.65;1.55;;;22.60;57.90;;;;;;5092352;28;20218;-68
2022/05/19 02:12:01;;;;;;;1.95;1.85;;;22.60;57.80;;;;;;5091650;28;20682;-68
2022/05/19 02:14:39;;;;;;;1.70;1.60;;;22.60;57.80;;;;;;5092551;28;20578;-69
2022/05/19 02:17:08;;;;;;;2.10;1.90;;;22.60;57.90;;;;;;5092004;28;20226;-68
2022/05/19 02:19:37;;;;;;;1.95;1.85;;;22.60;57.80;;;;;;5091411;28;20581;-68
2022/05/19 02:22:03;;;;;;;2.00;1.85;;;22.60;57.90;;;;;;5091542;28;20207;-68
2022/05/19 02:24:31;;;;;;;1.70;1.60;;;22.60;57.90;;;;;;5092786;28;20244;-68
2022/05/19 02:26:57;;;;;;;2.10;1.83;;;22.60;57.90;;;;;;5075352;28;20261;-68
2022/05/19 02:29:26;;;;;;;2.40;2.00;;;22.60;57.80;;;;;;5093152;28;20253;-68
2022/05/19 02:31:51;;;;;;;1.85;1.70;;;22.50;57.80;;;;;;5093295;28;20303;-67
2022/05/19 02:34:17;;;;;;;2.03;1.92;;;22.50;57.80;;;;;;5093561;28;20230;-67
2022/05/19 02:36:43;;;;;;;1.90;1.77;;;22.60;57.90;;;;;;5092710;28;20640;-67
2022/05/19 02:39:08;;;;;;;1.80;1.70;;;22.60;57.90;;;;;;5093552;28;20648;-67
2022/05/19 02:41:34;;;;;;;2.38;2.00;;;22.50;57.80;;;;;;5093450;28;20213;-67
2022/05/19 02:43:59;;;;;;;1.75;1.65;;;22.60;57.80;;;;;;5092684;28;20241;-67
2022/05/19 02:46:25;;;;;;;1.90;1.80;;;22.50;57.80;;;;;;5093436;28;20513;-68
2022/05/19 02:48:51;;;;;;;1.77;1.67;;;22.50;57.80;;;;;;5092339;28;20166;-67
2022/05/19 02:51:16;;;;;;;2.63;1.58;;;22.50;57.80;;;;;;5093099;28;20517;-68
2022/05/19 02:53:41;;;;;;;2.15;1.75;;;22.50;57.80;;;;;;5093197;28;20170;-68
2022/05/19 02:56:07;;;;;;;2.03;1.92;;;22.50;57.90;;;;;;5092516;28;20176;-68
2022/05/19 02:58:36;;;;;;;2.17;1.98;;;22.50;57.80;;;;;;5093100;28;20170;-68
2022/05/19 03:01:01;;;;;;;2.20;2.00;;;22.50;57.80;;;;;;5092871;28;20197;-67
2022/05/19 03:03:27;;;;;;;1.83;1.73;;;22.50;57.90;;;;;;5092379;28;20169;-67
2022/05/19 03:05:52;;;;;;;1.70;1.60;;;22.50;57.80;;;;;;5092722;28;20170;-67
2022/05/19 03:08:18;;;;;;;2.10;2.00;;;22.50;57.80;;;;;;5092731;28;20586;-67
2022/05/19 03:10:43;;;;;;;2.60;1.90;;;22.50;57.80;;;;;;5091758;28;20185;-68
2022/05/19 03:13:20;;;;;;;1.83;1.73;;;22.50;57.90;;;;;;5092739;28;20258;-67
2022/05/19 03:15:46;;;;;;;2.03;1.92;;;22.50;57.90;;;;;;5092567;28;20177;-68
2022/05/19 03:18:12;;;;;;;1.80;1.70;;;22.50;57.90;;;;;;5091817;28;20165;-67
2022/05/19 03:20:38;;;;;;;2.10;1.90;;;22.50;57.90;;;;;;5091210;28;20219;-67
2022/05/19 03:23:03;;;;;;;2.20;1.92;;;22.50;57.90;;;;;;5092776;28;20173;-68
2022/05/19 03:25:29;;;;;;;1.98;1.88;;;22.50;57.80;;;;;;5091837;28;20546;-67
2022/05/19 03:27:55;;;;;;;1.90;1.80;;;22.50;57.90;;;;;;5092692;28;20177;-67
2022/05/19 03:30:20;;;;;;;2.15;1.95;;;22.50;57.90;;;;;;5091901;28;20169;-67
2022/05/19 03:32:46;;;;;;;1.85;1.75;;;22.50;57.90;;;;;;5091558;28;20650;-66
2022/05/19 03:35:14;;;;;;;2.45;2.25;;;22.40;57.90;;;;;;5092570;28;20173;-67
2022/05/19 03:37:40;;;;;;;2.30;2.03;;;22.50;57.90;;;;;;5092314;28;20256;-66
2022/05/19 03:40:07;;;;;;;2.28;2.08;;;22.50;57.90;;;;;;5091861;28;20308;-67
2022/05/19 03:42:33;;;;;;;2.20;2.00;;;22.50;58.50;;;;;;5092380;28;20201;-67
2022/05/19 03:44:58;;;;;;;2.47;2.15;;;22.40;57.90;;;;;;5091511;28;20247;-67
2022/05/19 03:47:24;;;;;;;2.47;2.28;;;22.40;57.80;;;;;;5092438;28;20189;-67
2022/05/19 03:49:49;;;;;;;2.17;1.98;;;22.50;57.90;;;;;;5092215;28;20667;-67
2022/05/19 03:52:15;;;;;;;3.22;2.53;;;22.50;57.90;;;;;;5091762;28;20174;-66
2022/05/19 03:54:40;;;;;;;2.00;1.90;;;22.40;57.90;;;;;;5092200;28;20169;-67
2022/05/19 03:57:06;;;;;;;2.35;2.15;;;22.50;57.90;;;;;;5092292;28;20234;-67
2022/05/19 03:59:32;;;;;;;3.63;2.17;;;22.40;57.80;;;;;;5091670;28;20182;-67
2022/05/19 04:02:00;;;;;;;2.20;2.05;;;22.40;57.90;;;;;;5091685;28;20219;-67
2022/05/19 04:04:25;;;;;;;2.10;2.00;;;22.40;57.90;;;;;;5074686;28;20239;-66
2022/05/19 04:06:51;;;;;;;3.08;2.08;;;22.40;57.90;;;;;;5089407;28;20221;-67
2022/05/19 04:09:17;;;;;;;1.77;1.67;;;22.40;57.80;;;;;;5091640;28;20234;-67
2022/05/19 04:11:43;;;;;;;2.03;1.83;;;22.40;57.90;;;;;;5091925;28;20624;-69
2022/05/19 04:14:09;;;;;;;2.03;1.90;;;22.40;57.80;;;;;;5091410;28;20166;-68
2022/05/19 04:16:35;;;;;;;2.00;1.90;;;22.40;57.80;;;;;;5091774;28;20239;-68
2022/05/19 04:19:00;;;;;;;2.00;1.90;;;22.40;57.80;;;;;;5092178;28;20221;-68
2022/05/19 04:21:26;;;;;;;2.08;1.98;;;22.40;57.80;;;;;;5091359;28;20304;-68
2022/05/19 04:23:54;;;;;;;1.95;1.85;;;22.40;57.70;;;;;;5091758;28;20182;-68
2022/05/19 04:26:24;;;;;;;1.85;1.75;;;22.40;57.80;;;;;;5092245;28;20186;-68
2022/05/19 04:28:49;;;;;;;2.00;1.90;;;22.40;57.80;;;;;;5090989;28;20180;-67
2022/05/19 04:31:15;;;;;;;1.98;1.88;;;22.40;57.70;;;;;;5092143;28;20178;-67
2022/05/19 04:33:40;;;;;;;1.88;1.77;;;22.40;57.70;;;;;;5091818;28;20471;-67
2022/05/19 04:36:06;;;;;;;2.28;1.90;;;22.40;57.70;;;;;;5091514;28;20598;-67
2022/05/19 04:38:32;;;;;;;2.03;1.92;;;22.40;57.70;;;;;;5092096;28;20676;-68
2022/05/19 04:41:00;;;;;;;2.13;2.03;;;22.40;57.70;;;;;;5091618;28;20210;-67
2022/05/19 04:43:26;;;;;;;1.90;1.80;;;22.40;57.70;;;;;;5095442;28;20174;-68
2022/05/19 04:45:52;;;;;;;1.80;1.70;;;22.40;57.70;;;;;;5095660;28;20182;-67
2022/05/19 04:48:18;;;;;;;1.80;1.70;;;22.40;57.70;;;;;;5095315;28;20268;-67
2022/05/19 04:50:44;;;;;;;2.30;2.10;;;22.50;57.70;;;;;;5095840;28;20261;-67
2022/05/19 04:53:10;;;;;;;2.40;2.20;;;22.50;57.70;;;;;;5095975;28;20645;-67
2022/05/19 04:55:37;;;;;;;1.77;1.67;;;22.40;57.70;;;;;;5094869;28;20223;-68
2022/05/19 04:58:02;;;;;;;1.80;1.67;;;22.60;57.80;;;;;;5095644;28;20189;-67
2022/05/19 05:00:28;;;;;;;2.10;2.00;;;22.40;57.70;;;;;;5095751;28;20571;-66
2022/05/19 05:02:53;;;;;;;2.25;2.10;;;22.40;57.70;;;;;;5094745;28;20193;-67
2022/05/19 05:05:19;;;;;;;1.98;1.88;;;22.40;57.70;;;;;;5095703;28;20166;-67
2022/05/19 05:07:44;;;;;;;2.58;2.13;;;22.40;57.70;;;;;;5095206;28;20294;-67
2022/05/19 05:10:10;;;;;;;1.98;1.88;;;22.50;57.70;;;;;;5094692;28;20178;-67
2022/05/19 05:12:35;;;;;;;1.90;1.80;;;22.40;57.60;;;;;;5095004;28;20621;-68
2022/05/19 05:15:01;;;;;;;2.00;1.90;;;22.40;57.60;;;;;;5095496;28;20240;-68
2022/05/19 05:17:26;;;;;;;1.85;1.75;;;22.50;57.70;;;;;;5094628;28;20307;-68
2022/05/19 05:19:52;;;;;;;1.70;1.60;;;22.40;57.60;;;;;;5095046;28;20640;-68
2022/05/19 05:22:17;;;;;;;2.05;1.95;;;22.50;57.70;;;;;;5095059;28;20182;-68
2022/05/19 05:24:43;;;;;;;2.15;2.05;;;22.50;57.60;;;;;;5094260;28;20190;-68
2022/05/19 05:27:08;;;;;;;2.10;1.90;;;22.50;57.60;;;;;;5095092;28;20602;-68
2022/05/19 05:29:34;;;;;;;2.10;2.00;;;22.50;57.60;;;;;;5095097;28;20170;-67
2022/05/19 05:32:00;;;;;;;2.00;1.90;;;22.50;57.50;;;;;;5094700;28;20177;-67
2022/05/19 05:34:26;;;;;;;1.70;1.60;;;22.50;57.50;;;;;;5094907;28;20284;-67
2022/05/19 05:36:51;;;;;;;2.03;1.92;;;22.60;57.50;;;;;;5094594;28;20226;-67
2022/05/19 05:39:17;;;;;;;2.13;2.03;;;22.60;57.40;;;;;;5094128;28;20613;-66
2022/05/19 05:41:42;;;;;;;2.03;1.73;;;22.60;57.40;;;;;;5094431;28;20205;-67
2022/05/19 05:44:08;;;;;;;2.00;1.90;;;22.60;57.40;;;;;;5095133;28;20515;-67
2022/05/19 05:46:34;;;;;;;1.50;1.40;;;22.60;57.40;;;;;;5094338;28;20170;-67
2022/05/19 05:48:59;;;;;;;2.28;1.65;;;22.60;57.40;;;;;;5094744;28;20170;-67
2022/05/19 05:51:25;;;;;;;2.17;2.03;;;22.60;57.50;;;;;;5094903;28;20181;-68
2022/05/19 05:53:50;;;;;;;1.90;1.80;;;22.60;57.50;;;;;;5093047;28;20174;-68
2022/05/19 05:56:17;;;;;;;2.03;1.88;;;22.50;57.40;;;;;;5094492;28;20182;-68
2022/05/19 05:58:43;;;;;;;2.10;2.00;;;22.50;57.40;;;;;;5093575;28;20517;-68
2022/05/19 06:01:10;;;;;;;2.20;2.10;;;22.50;57.40;;;;;;5094629;28;20216;-67
2022/05/19 06:03:35;;;;;;;2.00;1.90;;;22.60;57.50;;;;;;5094592;28;20185;-67
2022/05/19 06:06:01;;;;;;;2.10;2.00;;;22.60;57.50;;;;;;5093658;28;20173;-66
2022/05/19 06:08:27;;;;;;;1.70;1.60;;;22.60;57.40;;;;;;5094165;28;20230;-66
2022/05/19 06:10:52;;;;;;;1.77;1.67;;;22.60;57.50;;;;;;5093923;28;20235;-68
2022/05/19 06:13:18;;;;;;;1.90;1.80;;;22.60;57.40;;;;;;5093690;28;20197;-68
2022/05/19 06:15:43;;;;;;;1.98;1.88;;;22.60;57.40;;;;;;5093928;28;20529;-68
2022/05/19 06:18:09;;;;;;;1.90;1.70;;;22.60;57.30;;;;;;5094208;28;20556;-68
2022/05/19 06:20:35;;;;;;;1.80;1.70;;;22.60;57.30;;;;;;5093225;28;20212;-67
2022/05/19 06:23:00;;;;;;;1.83;1.73;;;22.60;57.30;;;;;;5094102;28;20667;-68
2022/05/19 06:25:26;;;;;;;1.75;1.65;;;22.60;57.40;;;;;;5093936;28;20185;-68
2022/05/19 06:27:51;;;;;;;1.60;1.50;;;22.60;57.40;;;;;;5091462;28;20221;-67
2022/05/19 06:30:18;;;;;;;1.80;1.70;;;22.60;57.40;;;;;;5094296;28;20185;-66
2022/05/19 06:32:44;;;;;;;1.48;1.40;;;22.60;57.40;;;;;;5093824;28;20178;-66
2022/05/19 06:35:10;;;;;;;1.90;1.80;;;22.60;57.30;;;;;;5093239;28;20177;-67
2022/05/19 06:37:37;;;;;;;1.90;1.75;;;22.60;57.50;;;;;;5093812;28;20178;-68
2022/05/19 06:40:03;;;;;;;1.73;1.63;;;22.60;57.50;;;;;;5093566;28;20193;-72
2022/05/19 06:42:28;;;;;;;4.88;2.00;;;22.60;58.00;;;;;;5093146;28;20189;-72
2022/05/19 06:44:56;;;;;;;1.90;1.80;;;22.60;57.80;;;;;;5093533;28;20231;-71
2022/05/19 06:47:21;;;;;;;1.80;1.70;;;22.70;57.80;;;;;;5093835;28;20178;-72
2022/05/19 06:49:48;;;;;;;3.15;1.90;;;22.60;57.70;;;;;;5092637;28;20173;-72
2022/05/19 06:52:16;;;;;;;2.20;1.90;;;22.60;57.60;;;;;;5093555;28;20173;-71
2022/05/19 06:54:45;;;;;;;1.80;1.70;;;22.60;57.70;;;;;;5093209;28;20174;-72
2022/05/19 06:57:11;;;;;;;2.40;1.90;;;22.60;57.70;;;;;;5092873;28;20217;-71
2022/05/19 06:59:36;;;;;;;2.65;1.88;;;22.60;57.70;;;;;;5093389;28;20193;-72
2022/05/19 07:02:05;;;;;;;2.72;2.35;;;22.70;58.00;;;;;;5092775;28;20244;-69
2022/05/19 07:04:31;;;;;;;3.15;2.20;;;22.70;58.00;;;;;;5093120;28;20260;-70
2022/05/19 07:06:57;;;;;;;2.30;1.80;;;22.70;58.50;;;;;;5092346;28;20684;-67
2022/05/19 07:09:22;;;;;;;2.13;1.77;;;22.70;57.90;;;;;;5092629;28;20505;-69
2022/05/19 07:11:48;;;;;;;3.03;2.13;;;22.80;57.90;;;;;;5093108;28;20194;-71
2022/05/19 07:14:14;;;;;;;2.22;1.88;;;22.80;57.90;;;;;;5093331;28;20219;-72
2022/05/19 07:16:41;;;;;;;2.30;2.10;;;22.80;58.00;;;;;;5092221;28;20174;-72
2022/05/19 07:21:53;;;;;;;1.73;1.63;;;22.80;57.90;;;;;;5092734;28;20657;-72
2022/05/19 07:24:19;;;;;;;3.00;2.10;;;22.80;57.90;;;;;;5092448;28;20219;-72
2022/05/19 07:26:47;;;;;;;2.00;1.90;;;22.80;57.90;;;;;;5092565;28;20219;-72
2022/05/19 07:29:12;;;;;;;1.70;1.55;;;22.90;58.00;;;;;;5093046;28;20253;-72
2022/05/19 07:31:38;;;;;;;2.25;2.15;;;22.90;58.00;;;;;;5091725;28;20269;-72
2022/05/19 07:34:07;;;;;;;2.70;2.10;;;22.80;58.00;;;;;;5092671;28;20288;-71
2022/05/19 07:36:33;;;;;;;3.55;2.05;;;22.80;58.00;;;;;;5092617;28;20178;-72
2022/05/19 07:39:02;;;;;;;2.30;2.10;;;22.80;58.00;;;;;;5091602;28;20227;-71
2022/05/19 07:41:28;;;;;;;2.20;2.05;;;22.80;58.00;;;;;;5092612;28;20213;-71
2022/05/19 07:43:53;;;;;;;3.88;1.88;;;22.80;58.00;;;;;;5092437;28;20174;-71
2022/05/19 07:46:19;;;;;;;2.40;1.88;;;22.80;58.10;;;;;;5091735;28;20176;-70
2022/05/19 07:48:44;;;;;;;2.47;1.80;;;22.80;58.00;;;;;;5092284;28;20182;-71
2022/05/19 07:51:10;;;;;;;2.65;2.13;;;22.80;58.00;;;;;;5091865;28;20181;-70
2022/05/19 07:53:36;;;;;;;3.80;2.30;;;22.80;58.00;;;;;;5092314;28;20600;-71
2022/05/19 07:56:02;;;;;;;2.10;1.90;;;22.80;58.00;;;;;;5092431;28;20624;-71
2022/05/19 07:58:29;;;;;;;3.25;2.28;;;22.80;58.00;;;;;;5091560;28;20178;-71
2022/05/19 08:00:55;;;;;;;2.20;2.00;;;22.80;58.60;;;;;;5091993;28;20214;-71
2022/05/19 08:03:22;;;;;;;4.05;2.30;;;22.80;58.00;;;;;;5092329;28;20182;-69
2022/05/19 08:05:48;;;;;;;3.42;1.90;;;22.80;58.00;;;;;;5091157;28;20664;-70
2022/05/19 08:08:13;;;;;;;2.25;2.00;;;22.80;58.00;;;;;;5092011;28;20232;-71
2022/05/19 08:10:39;;;;;;;2.25;2.03;;;22.80;58.00;;;;;;5091850;28;20181;-71
2022/05/19 08:15:49;;;;;;;2.22;2.03;;;22.80;57.90;;;;;;5092011;28;20195;-71
2022/05/19 08:18:15;;;;;;;2.08;1.77;;;22.80;57.90;;;;;;5096183;28;20628;-71
2022/05/19 08:20:44;;;;;;;2.10;1.90;;;22.90;57.90;;;;;;5095360;28;20531;-71
2022/05/19 08:23:18;;;;;;;2.45;1.85;;;22.90;57.90;;;;;;5096551;28;20535;-71
2022/05/19 08:25:44;;;;;;;2.35;1.85;;;22.90;57.80;;;;;;5096140;28;20663;-72
2022/05/19 08:28:13;;;;;;;2.03;1.83;;;22.90;57.70;;;;;;5095684;28;20178;-70
2022/05/19 08:30:40;;;;;;;2.13;1.90;;;23.00;57.80;;;;;;5095917;28;20261;-70
2022/05/19 08:33:06;;;;;;;1.90;1.77;;;23.00;57.70;;;;;;5096517;28;20184;-71
2022/05/19 08:35:31;;;;;;;2.25;1.88;;;23.00;57.60;;;;;;5095667;28;20178;-71
2022/05/19 08:37:57;;;;;;;2.35;2.10;;;23.00;57.60;;;;;;5095808;28;20165;-70
2022/05/19 08:40:22;;;;;;;1.77;1.67;;;23.00;57.60;;;;;;5095405;28;20209;-71
2022/05/19 08:42:51;;;;;;;2.20;2.10;;;23.10;57.50;;;;;;5094555;28;20231;-70
2022/05/19 08:45:19;;;;;;;2.05;1.95;;;23.10;57.50;;;;;;5094879;28;20185;-70
2022/05/19 08:47:45;;;;;;;2.40;2.20;;;23.10;57.50;;;;;;5093995;28;20174;-71
2022/05/19 08:50:26;;;;;;;2.47;2.00;;;23.10;57.50;;;;;;5094762;28;20208;-69
2022/05/19 08:52:52;;;;;;;3.45;2.03;;;23.10;57.40;;;;;;5094554;28;20178;-71
2022/05/19 08:55:18;;;;;;;2.05;1.90;;;23.20;57.50;;;;;;5093926;28;20231;-71
2022/05/19 08:58:07;;;;;;;1.75;1.63;;;23.10;57.40;;;;;;5094151;28;20667;-72
2022/05/19 09:01:28;;;;;;;2.10;1.90;;;23.20;57.40;;;;;;5094651;28;20284;-71
2022/05/19 09:04:03;;;;;;;1.77;1.67;;;23.20;57.40;;;;;;5032971;28;20183;-70
2022/05/19 09:07:56;;;;;;;2.00;1.90;;;23.20;57.40;;;;;;5094328;28;20180;-71
2022/05/19 09:10:03;;;;;;;2.45;2.00;;;23.30;57.40;;;;;;5093743;28;20185;-72
2022/05/19 09:12:29;;;;;;;1.77;1.67;;;23.30;57.30;;;;;;5094149;28;20197;-71
2022/05/19 09:14:54;;;;;;;2.28;1.70;;;23.40;57.40;;;;;;5093880;28;20732;-72
2022/05/19 09:17:25;;;;;;;1.98;1.80;;;23.40;57.30;;;;;;5094770;28;20303;-72
2022/05/19 09:19:55;;;;;;;2.20;2.10;;;23.40;57.30;;;;;;5093950;28;20174;-71
2022/05/19 09:22:23;;;;;;;2.08;1.98;;;23.50;57.30;;;;;;5094254;28;20199;-72
2022/05/19 09:24:49;;;;;;;2.25;2.05;;;23.50;57.30;;;;;;5093059;28;20216;-72
2022/05/19 09:27:16;;;;;;;1.88;1.77;;;23.50;57.30;;;;;;5095553;28;20186;-71
2022/05/19 09:29:52;;;;;;;2.70;2.00;;;23.40;57.30;;;;;;5093260;28;20182;-73
2022/05/19 09:32:18;;;;;;;1.58;1.48;;;23.50;57.40;;;;;;5095342;28;20185;-72
2022/05/19 09:34:50;;;;;;;1.80;1.70;;;23.50;57.40;;;;;;5095054;28;20303;-72
2022/05/19 09:37:28;;;;;;;2.13;1.60;;;23.50;57.30;;;;;;5094421;28;20182;-72
2022/05/19 09:40:06;;;;;;;3.08;1.90;;;23.50;57.30;;;;;;5094848;28;20185;-72
2022/05/19 09:42:36;;;;;;;2.10;2.00;;;23.50;57.30;;;;;;5093924;28;20184;-73
2022/05/19 09:45:01;;;;;;;2.58;2.03;;;23.60;57.40;;;;;;5094266;28;20216;-70
2022/05/19 09:47:35;;;;;;;1.90;1.80;;;23.60;57.40;;;;;;5094836;28;20201;-72
2022/05/19 09:50:40;;;;;;;2.15;1.92;;;23.60;57.40;;;;;;5094936;28;20174;-71
2022/05/19 09:53:35;;;;;;;2.10;1.90;;;23.60;57.30;;;;;;5061068;28;20671;-72
2022/05/19 09:56:02;;;;;;;2.58;1.83;;;23.60;57.40;;;;;;5094413;28;20186;-72
2022/05/19 09:58:32;;;;;;;3.22;2.13;;;23.60;57.40;;;;;;5092976;28;20177;-72
2022/05/19 10:00:59;;;;;;;2.22;2.03;;;23.60;57.40;;;;;;5094385;28;20257;-71
2022/05/19 10:03:29;;;;;;;2.10;1.92;;;23.60;57.40;;;;;;5093337;28;20668;-72
2022/05/19 10:05:56;;;;;;;2.97;1.88;;;23.60;57.50;;;;;;5092046;28;20268;-72
2022/05/19 10:08:30;;;;;;;3.47;2.17;;;23.60;57.50;;;;;;5094039;28;20225;-72
2022/05/19 10:11:16;;;;;;;2.20;2.03;;;23.60;57.60;;;;;;5092889;28;20242;-72
2022/05/19 10:13:48;;;;;;;3.67;1.90;;;23.60;57.60;;;;;;5093329;28;20199;-74
2022/05/19 10:16:21;;;;;;;1.90;1.80;;;23.50;57.50;;;;;;5094487;28;20181;-72
2022/05/19 10:19:10;;;;;;;2.25;1.83;;;23.50;57.60;;;;;;5092338;28;20166;-74
2022/05/19 10:22:00;;;;;;;2.28;2.08;;;23.60;57.60;;;;;;5093883;28;20235;-73
2022/05/19 10:24:41;;;;;;;2.88;2.30;;;23.50;57.60;;;;;;5093051;28;20260;-72
2022/05/19 10:31:06;;;;;;;2.58;1.90;;;23.60;57.50;;;;;;5093082;28;20201;-72
2022/05/19 10:33:34;;;;;;;1.98;1.83;;;23.60;57.50;;;;;;5093198;28;20170;-69
2022/05/19 10:36:20;;;;;;;2.92;2.15;;;23.60;57.40;;;;;;5094133;28;20174;-69
2022/05/19 10:38:46;;;;;;;3.75;2.15;;;23.60;57.50;;;;;;5092342;28;20607;-71
2022/05/19 10:41:18;;;;;;;2.28;2.08;;;23.60;57.50;;;;;;5092733;28;20296;-68
2022/05/19 10:43:57;;;;;;;2.90;2.13;;;23.70;57.60;;;;;;5093328;28;20733;-68
2022/05/19 10:46:23;;;;;;;3.17;1.95;;;23.70;57.40;;;;;;5092810;28;20197;-68
2022/05/19 10:49:36;;;;;;;4.78;2.20;;;23.70;57.40;;;;;;5092522;28;20181;-68
2022/05/19 10:52:11;;;;;;;2.80;2.25;;;23.70;57.50;;;;;;5031324;28;20171;-69
2022/05/19 10:54:56;;;;;;;6.07;2.80;;;23.70;57.60;;;;;;5030344;28;20179;-68
2022/05/19 10:57:24;;;;;;;6.03;2.25;;;23.70;57.70;;;;;;5064144;28;20186;-68
2022/05/19 11:00:11;;;;;;;2.40;1.90;;;23.70;58.10;;;;;;5091991;28;20174;-69
2022/05/19 11:03:04;;;;;;;3.40;2.30;;;23.70;57.60;;;;;;5092436;28;20221;-68
2022/05/19 11:05:49;;;;;;;3.30;2.60;;;23.70;57.70;;;;;;5093505;28;20170;-67
2022/05/19 11:08:31;;;;;;;6.28;2.33;;;23.70;57.70;;;;;;5092378;28;20232;-68
2022/05/19 11:11:03;;;;;;;5.97;2.58;;;23.70;57.90;;;;;;5091693;28;20182;-70
2022/05/19 11:13:28;;;;;;;3.50;2.00;;;23.70;57.90;;;;;;5093098;28;20649;-71
2022/05/19 11:16:19;;;;;;;9.05;2.70;;;23.60;57.90;;;;;;5092296;28;20204;-70
2022/05/19 11:19:06;;;;;;;3.22;2.10;;;23.60;57.90;;;;;;5091664;28;20205;-70
2022/05/19 11:21:54;;;;;;;5.18;2.45;;;23.60;58.00;;;;;;5091608;28;20209;-70
2022/05/19 11:27:50;;;;;;;2.72;2.42;;;23.80;57.90;;;;;;5092586;28;20180;-68
2022/05/19 11:30:21;;;;;;;2.63;1.90;;;23.80;57.70;;;;;;5091331;28;20291;-67
2022/05/19 11:32:57;;;;;;;4.38;2.85;;;23.80;57.60;;;;;;5091393;28;20219;-66
2022/05/19 11:35:41;;;;;;;3.38;1.98;;;23.80;57.60;;;;;;5091908;28;20209;-65
2022/05/19 11:38:19;;;;;;;3.67;2.40;;;23.80;57.70;;;;;;5089218;28;20209;-66
2022/05/19 11:40:52;;;;;;;3.65;2.70;;;23.70;57.80;;;;;;5091057;28;20296;-66
2022/05/19 11:43:30;;;;;;;4.50;2.20;;;23.70;57.80;;;;;;5091999;28;20177;-66
2022/05/19 11:46:09;;;;;;;5.28;2.30;;;23.70;57.80;;;;;;5092228;28;20671;-66
2022/05/19 11:57:29;;;;;;;2.40;2.20;;;23.50;58.00;;;;;;5090599;28;20172;-65
2022/05/19 11:59:56;;;;;;;4.90;1.95;;;23.50;58.10;;;;;;5091043;28;20207;-64
2022/05/19 12:02:26;;;;;;;3.30;2.40;;;23.50;58.10;;;;;;5092382;28;20170;-65
2022/05/19 12:04:57;;;;;;;4.25;2.33;;;23.50;58.10;;;;;;5090213;28;20170;-65
2022/05/19 12:07:52;;;;;;;4.95;2.30;;;23.50;58.20;;;;;;5090975;28;20225;-66
2022/05/19 12:10:22;;;;;;;3.47;2.33;;;23.40;58.10;;;;;;5077154;28;20174;-66
2022/05/19 12:12:58;;;;;;;4.15;2.25;;;23.40;58.20;;;;;;5090060;28;20197;-67
2022/05/19 12:15:31;;;;;;;5.00;2.70;;;23.40;58.20;;;;;;5092209;28;20621;-67
2022/05/19 12:17:59;;;;;;;2.80;2.55;;;23.40;58.30;;;;;;5091532;28;20536;-67
2022/05/19 12:20:34;;;;;;;2.50;2.20;;;23.40;58.30;;;;;;5090197;28;20202;-67
2022/05/19 12:23:18;;;;;;;4.82;2.15;;;23.40;58.30;;;;;;5091878;28;20177;-67
2022/05/19 12:25:48;;;;;;;3.22;2.45;;;23.30;58.30;;;;;;5091069;28;21051;-67
2022/05/19 12:28:14;;;;;;;2.55;2.35;;;23.30;58.40;;;;;;5091847;28;20197;-66
2022/05/19 12:33:28;;;;;;;2.63;2.15;;;23.30;58.80;;;;;;5090310;28;20173;-64
2022/05/19 12:36:06;;;;;;;3.85;2.30;;;23.20;59.00;;;;;;5091776;28;20170;-64
2022/05/19 12:38:34;;;;;;;4.07;2.13;;;23.20;59.00;;;;;;5091914;28;20524;-71
2022/05/19 12:41:04;;;;;;;3.63;2.15;;;23.20;59.00;;;;;;5089816;28;20197;-72
2022/05/19 12:43:44;;;;;;;4.70;2.28;;;23.20;59.00;;;;;;5090746;28;20251;-69
2022/05/19 12:46:32;;;;;;;6.00;2.10;;;23.20;59.20;;;;;;5090793;28;20173;-68
2022/05/19 12:49:16;;;;;;;3.72;2.20;;;23.20;59.30;;;;;;5090525;28;20234;-68
2022/05/19 12:51:56;;;;;;;3.35;2.03;;;23.20;59.20;;;;;;5091531;28;20652;-69
2022/05/19 12:54:22;;;;;;;2.50;1.90;;;23.20;59.30;;;;;;5091606;28;20173;-67
2022/05/19 12:57:19;;;;;;;4.97;2.28;;;23.20;59.30;;;;;;5091728;28;20186;-72
2022/05/19 12:59:46;;;;;;;3.17;1.90;;;23.20;59.30;;;;;;5088295;28;20230;-72
2022/05/19 13:02:44;;;;;;;3.75;1.90;;;23.10;59.20;;;;;;5091549;28;20232;-70
2022/05/19 13:05:21;;;;;;;2.75;1.80;;;23.10;59.40;;;;;;5095961;28;20217;-72
2022/05/19 13:07:50;;;;;;;3.20;1.83;;;23.10;59.60;;;;;;5093407;28;20229;-72
2022/05/19 13:10:19;;;;;;;4.07;1.83;;;23.10;59.60;;;;;;5095754;28;20174;-69
2022/05/19 13:12:59;;;;;;;2.80;1.80;;;23.10;59.60;;;;;;5095545;28;20178;-72
2022/05/19 13:15:30;;;;;;;4.75;2.03;;;23.10;59.60;;;;;;5093611;28;20249;-72
2022/05/19 13:17:57;;;;;;;2.60;1.95;;;23.10;59.60;;;;;;5095208;28;20185;-72
2022/05/19 13:20:26;;;;;;;2.78;1.42;;;23.10;59.60;;;;;;5095558;28;20206;-72
2022/05/19 13:22:59;;;;;;;4.78;1.98;;;23.10;59.60;;;;;;5092525;28;20227;-71
2022/05/19 13:25:27;;;;;;;2.80;1.55;;;23.10;59.60;;;;;;5094278;28;20549;-71
2022/05/19 13:31:08;;;;;;;4.38;1.70;;;23.00;59.40;;;;;;5093845;28;20231;-70